Portada
METAR-TAF:

METAR-TAF

Aeropuertos :

Aeropuerto Internacional Reina Beatrix

Aruba, Aruba

latitud: 12-30N, longitud: 070-01W, altitud: 18 m

Observación

El informe se hizo hace 13 horas y 48 minutos, a las 02:00 UTC
Viento 19 kt del este
Temperatura 28°C
Humedad 79%
Presión 1014 hPa
Visibilidad 10 km o más
Escasas nubes a una altura de 1700 ft

METAR: TNCA 210200Z 08019KT 9999 FEW017 28/24 Q1014 NOSIG

Hora: 11:48 (15:48 UTC)

Pronóstico

El informe se hizo hace 17 horas y 48 minutos, a las 22:00 UTC
Pronóstico válido del 21 a las 00 UTC al 22 a las 24 UTC
Viento 19 kt del este
Visibilidad 10 km o más
Nubes dispersas a una altura de 1800 ft
Temporalmente
del 21 a las 06 UTC al 21 a las 14 UTC
Cielo nuboso a una altura de 1500 ft

TAF: TNCA 202200Z 2100/2224 09019KT 9999 SCT018 TEMPO 2106/2114 BKN015

Observaciones y pronósticos meteorológicos de más de 4000 aeropuertos (mensajes METAR y TAF).

Los puntos amarillos y rojos representan las estaciones disponibles.

Ponga el ratón en el punto deseado para ver el nombre de la estación.

Haga clic para ver las observaciones y los pronósticos meteorológicos.

Para cambiar el mapa : haga clic en los botones verdes con una cruz de color negro para hacer un zoom, en el botón verde con un guión para alejar o en las flechas verdes para mapas adyacentes.


METAR-TAF: